createdAt,value
2019-04-29T00:02:27.266Z,4.80
2019-04-29T00:07:31.296Z,4.70
2019-04-29T00:10:01.462Z,4.50
2019-04-29T00:22:44.415Z,4.10
2019-04-29T00:25:14.571Z,4.00
2019-04-29T00:30:20.381Z,3.80
2019-04-29T00:38:10.155Z,3.60
2019-04-29T00:40:45.520Z,3.50
2019-04-29T00:43:22.996Z,3.50
2019-04-29T00:48:22.931Z,3.60
2019-04-29T00:55:54.343Z,3.50
2019-04-29T01:00:55.104Z,3.40
2019-04-29T01:03:25.188Z,3.40
2019-04-29T01:15:56.715Z,3.40
2019-04-29T01:20:56.547Z,3.30
2019-04-29T01:23:31.560Z,3.20
2019-04-29T01:28:39.247Z,3.30
2019-04-29T01:33:41.713Z,3.30
2019-04-29T01:36:22.355Z,3.30
2019-04-29T01:56:37.383Z,3.20
2019-04-29T01:59:07.535Z,3.10
2019-04-29T02:01:37.788Z,3.00
2019-04-29T02:11:41.339Z,2.90
2019-04-29T02:14:13.447Z,2.90
2019-04-29T02:16:45.503Z,2.70
2019-04-29T02:24:57.427Z,2.60
2019-04-29T02:27:27.511Z,2.60
2019-04-29T02:29:58.596Z,2.50
2019-04-29T02:32:28.680Z,2.60
2019-04-29T02:37:32.116Z,2.50
2019-04-29T02:40:06.495Z,2.60
2019-04-29T02:42:38.293Z,2.60
2019-04-29T02:45:16.366Z,2.70
2019-04-29T02:47:52.185Z,2.70
2019-04-29T02:52:53.216Z,2.70
2019-04-29T02:58:02.354Z,2.80
2019-04-29T03:03:25.774Z,2.80
2019-04-29T03:08:27.480Z,2.80
2019-04-29T03:10:58.040Z,2.80
2019-04-29T03:13:29.101Z,2.90
2019-04-29T03:16:01.586Z,2.90
2019-04-29T03:18:39.085Z,3.00
2019-04-29T03:21:22.313Z,3.00
2019-04-29T03:23:53.138Z,3.00
2019-04-29T03:26:28.987Z,3.10
2019-04-29T03:28:59.085Z,3.20
2019-04-29T03:31:29.172Z,3.20
2019-04-29T03:33:59.268Z,3.30
2019-04-29T03:36:31.311Z,3.40
2019-04-29T03:39:07.327Z,3.60
2019-04-29T03:44:08.157Z,3.70
2019-04-29T03:46:39.301Z,3.80
2019-04-29T03:49:09.628Z,3.80
2019-04-29T03:51:39.748Z,3.80
2019-04-29T03:54:10.803Z,3.80
2019-04-29T03:56:43.331Z,3.80
2019-04-29T03:59:13.438Z,3.80
2019-04-29T04:01:50.128Z,3.80
2019-04-29T04:04:38.344Z,3.90
2019-04-29T04:07:25.940Z,3.90
2019-04-29T04:09:57.027Z,3.90
2019-04-29T04:12:27.115Z,4.00
2019-04-29T04:17:46.797Z,4.00
2019-04-29T04:20:17.010Z,3.90
2019-04-29T04:22:49.868Z,3.90
2019-04-29T04:25:20.157Z,3.90
2019-04-29T04:27:50.283Z,3.90
2019-04-29T04:30:22.152Z,3.90
2019-04-29T04:32:54.220Z,4.00
2019-04-29T04:35:24.286Z,4.00
2019-04-29T04:37:58.439Z,4.10
2019-04-29T04:40:32.640Z,4.20
2019-04-29T04:43:02.815Z,4.20
2019-04-29T04:45:33.891Z,4.30
2019-04-29T04:48:05.980Z,4.40
2019-04-29T04:50:37.288Z,4.50
2019-04-29T04:53:09.524Z,4.60
2019-04-29T04:58:12.899Z,4.60
2019-04-29T05:00:43.059Z,4.80
2019-04-29T05:03:14.296Z,4.80
2019-04-29T05:05:59.555Z,5.00
2019-04-29T05:08:29.655Z,5.10
2019-04-29T05:10:59.783Z,5.20
2019-04-29T05:15:59.579Z,5.40
2019-04-29T05:18:32.780Z,5.50
2019-04-29T05:21:02.879Z,5.60
2019-04-29T05:26:03.653Z,5.80
2019-04-29T05:28:33.748Z,5.90
2019-04-29T05:31:28.488Z,5.90
2019-04-29T05:33:58.829Z,6.00
2019-04-29T05:36:34.048Z,6.00
2019-04-29T05:39:17.033Z,6.00
2019-04-29T05:41:52.975Z,6.10
2019-04-29T05:44:31.562Z,6.20
2019-04-29T05:47:21.885Z,6.30
2019-04-29T05:50:16.885Z,6.40
2019-04-29T05:53:03.272Z,6.50
2019-04-29T05:55:36.378Z,6.50
2019-04-29T05:58:11.117Z,6.60
2019-04-29T06:03:38.190Z,6.80
2019-04-29T06:06:12.259Z,6.80
2019-04-29T06:08:41.963Z,6.80
2019-04-29T06:11:12.059Z,7.00
2019-04-29T06:13:42.168Z,7.10
2019-04-29T06:16:15.934Z,7.20
2019-04-29T06:21:15.695Z,7.30
2019-04-29T06:23:45.781Z,7.30
2019-04-29T06:26:17.911Z,7.30
2019-04-29T06:28:56.875Z,7.30
2019-04-29T06:31:27.139Z,7.30
2019-04-29T06:34:00.720Z,7.30
2019-04-29T06:36:30.195Z,7.40
2019-04-29T06:39:00.297Z,7.50
2019-04-29T06:41:33.525Z,7.70
2019-04-29T06:44:06.242Z,7.80
2019-04-29T06:46:38.347Z,7.90
2019-04-29T06:49:10.488Z,8.00
2019-04-29T06:51:46.365Z,8.10
2019-04-29T06:54:17.436Z,8.20
2019-04-29T06:56:47.531Z,8.20
2019-04-29T06:59:17.619Z,8.30
2019-04-29T07:01:53.847Z,8.30
2019-04-29T07:04:23.919Z,8.40
2019-04-29T07:07:03.828Z,8.40
2019-04-29T07:09:33.928Z,8.50
2019-04-29T07:12:08.233Z,8.50
2019-04-29T07:14:38.492Z,8.50
2019-04-29T07:17:10.607Z,8.40
2019-04-29T07:19:40.731Z,8.30
2019-04-29T07:22:10.817Z,8.30
2019-04-29T07:24:40.899Z,8.30
2019-04-29T07:27:10.991Z,8.40
2019-04-29T07:29:41.095Z,8.40
2019-04-29T07:32:12.237Z,8.50
2019-04-29T07:34:42.328Z,8.50
2019-04-29T07:47:31.110Z,9.00
2019-04-29T07:50:08.475Z,9.20
2019-04-29T07:52:38.544Z,9.40
2019-04-29T07:55:11.804Z,9.50
2019-04-29T08:02:44.797Z,9.40
2019-04-29T08:05:15.744Z,9.40
2019-04-29T08:07:46.200Z,9.50
2019-04-29T08:12:50.215Z,10.10
2019-04-29T08:15:22.428Z,10.40
2019-04-29T08:22:58.411Z,10.40
2019-04-29T08:25:33.726Z,10.50
2019-04-29T08:28:03.801Z,10.40
2019-04-29T08:30:36.991Z,10.60
2019-04-29T08:33:12.039Z,10.50
2019-04-29T08:35:39.826Z,10.40
2019-04-29T08:38:10.008Z,10.30
2019-04-29T08:40:40.108Z,10.30
2019-04-29T08:48:34.077Z,10.80
2019-04-29T08:56:05.607Z,10.80
2019-04-29T09:01:09.024Z,10.70
2019-04-29T09:03:40.989Z,11.00
2019-04-29T09:06:11.251Z,11.30
2019-04-29T09:08:54.042Z,11.40
2019-04-29T09:11:14.445Z,11.40
2019-04-29T09:13:44.764Z,11.20
2019-04-29T09:16:14.876Z,11.30
2019-04-29T09:18:44.995Z,11.80
2019-04-29T09:21:15.080Z,12.10
2019-04-29T09:26:48.771Z,12.80
2019-04-29T09:29:32.672Z,13.00
2019-04-29T09:32:05.170Z,13.00
2019-04-29T09:34:35.372Z,13.00
2019-04-29T09:37:05.550Z,13.30
2019-04-29T09:45:05.387Z,13.40
2019-04-29T09:50:15.606Z,13.10
2019-04-29T09:52:47.280Z,13.10
2019-04-29T09:55:19.024Z,13.00
2019-04-29T09:57:52.792Z,13.00
2019-04-29T10:00:40.689Z,13.10
2019-04-29T10:03:28.696Z,13.10
2019-04-29T10:08:53.005Z,13.00
2019-04-29T10:13:52.832Z,13.10
2019-04-29T10:16:31.628Z,13.10
2019-04-29T10:19:20.225Z,12.80
2019-04-29T10:21:50.319Z,12.40
2019-04-29T10:26:50.196Z,12.10
2019-04-29T10:29:22.068Z,12.10
2019-04-29T10:31:52.732Z,12.00
2019-04-29T10:34:26.919Z,11.90
2019-04-29T10:42:06.513Z,10.90
2019-04-29T10:47:24.392Z,10.60
2019-04-29T10:49:58.730Z,10.60
2019-04-29T10:52:30.140Z,10.70
2019-04-29T10:55:00.229Z,10.50
2019-04-29T10:57:31.417Z,10.40
2019-04-29T11:00:09.193Z,10.30
2019-04-29T11:02:39.762Z,10.10
2019-04-29T11:08:04.305Z,9.80
2019-04-29T11:13:05.207Z,10.20
2019-04-29T11:15:37.071Z,10.20
2019-04-29T11:20:56.900Z,10.40
2019-04-29T11:31:32.128Z,9.70
2019-04-29T11:36:38.921Z,9.20
2019-04-29T11:39:13.783Z,9.00
2019-04-29T11:41:42.024Z,9.10
2019-04-29T11:44:12.198Z,9.10
2019-04-29T11:46:44.613Z,9.10
2019-04-29T11:54:19.500Z,9.00
2019-04-29T11:56:49.585Z,8.90
2019-04-29T11:59:40.372Z,8.80
2019-04-29T12:02:18.734Z,8.70
2019-04-29T12:04:53.252Z,8.60
2019-04-29T12:07:31.888Z,8.70
2019-04-29T12:10:02.367Z,8.30
2019-04-29T12:12:38.948Z,8.90
2019-04-29T12:15:13.737Z,8.90
2019-04-29T12:28:01.228Z,9.10
2019-04-29T12:30:29.768Z,9.00
2019-04-29T12:33:01.402Z,9.00
2019-04-29T12:38:13.696Z,9.10
2019-04-29T12:40:50.199Z,9.20
2019-04-29T12:43:43.742Z,9.30
2019-04-29T12:46:15.468Z,9.30
2019-04-29T12:48:47.474Z,9.20
2019-04-29T12:51:17.638Z,9.10
2019-04-29T12:53:47.732Z,8.90
2019-04-29T12:56:19.476Z,8.60
2019-04-29T13:01:51.347Z,8.50
2019-04-29T13:04:28.004Z,8.30
2019-04-29T13:07:16.602Z,8.30
2019-04-29T13:09:54.373Z,8.40
2019-04-29T13:15:12.686Z,8.40
2019-04-29T13:17:46.465Z,8.40
2019-04-29T13:22:46.337Z,8.50
2019-04-29T13:25:19.765Z,8.70
2019-04-29T13:30:21.316Z,8.80
2019-04-29T13:35:30.642Z,8.80
2019-04-29T13:40:37.471Z,8.70
2019-04-29T13:43:08.279Z,8.60
2019-04-29T13:45:41.018Z,8.60
2019-04-29T13:48:19.524Z,8.50
2019-04-29T13:50:59.985Z,8.60
2019-04-29T13:56:11.112Z,8.70
2019-04-29T13:58:31.592Z,8.80
2019-04-29T14:01:03.614Z,8.60
2019-04-29T14:03:35.338Z,8.40
2019-04-29T14:11:07.422Z,8.10
2019-04-29T14:13:38.864Z,8.10
2019-04-29T14:18:43.575Z,8.10
2019-04-29T14:21:14.629Z,8.00
2019-04-29T14:26:14.444Z,7.70
2019-04-29T14:28:44.608Z,7.70
2019-04-29T14:34:00.334Z,7.60
2019-04-29T14:36:28.598Z,7.60
2019-04-29T14:39:01.722Z,7.60
2019-04-29T14:41:36.544Z,7.60
2019-04-29T14:44:08.578Z,7.60
2019-04-29T14:46:56.027Z,7.60
2019-04-29T14:49:35.404Z,7.60
2019-04-29T14:52:08.166Z,7.50
2019-04-29T14:54:41.697Z,7.50
2019-04-29T14:57:10.088Z,7.50
2019-04-29T15:02:17.278Z,7.50
2019-04-29T15:04:44.957Z,7.40
2019-04-29T15:07:18.867Z,7.40
2019-04-29T15:09:55.956Z,7.40
2019-04-29T15:13:06.763Z,7.40
2019-04-29T15:18:15.905Z,7.30
2019-04-29T15:20:46.687Z,7.20
2019-04-29T15:23:27.987Z,7.10
2019-04-29T15:25:50.544Z,7.00
2019-04-29T15:31:08.037Z,7.00
2019-04-29T15:33:40.704Z,6.90
2019-04-29T15:36:10.829Z,7.00
2019-04-29T15:38:48.915Z,7.10
2019-04-29T15:44:18.513Z,7.00
2019-04-29T15:46:47.082Z,7.10
2019-04-29T15:49:15.420Z,7.20
2019-04-29T15:54:21.092Z,7.10
2019-04-29T15:56:51.414Z,7.10
2019-04-29T15:59:27.545Z,7.10
2019-04-29T16:04:41.110Z,7.10
2019-04-29T16:07:17.100Z,7.10
2019-04-29T16:16:03.378Z,7.10
2019-04-29T16:18:51.440Z,7.00
2019-04-29T16:21:43.166Z,7.00
2019-04-29T16:27:21.189Z,7.00
2019-04-29T16:32:57.748Z,7.00
2019-04-29T16:41:37.782Z,6.90
2019-04-29T16:44:35.380Z,6.90
2019-04-29T16:50:09.408Z,6.90
2019-04-29T16:55:45.322Z,6.90
2019-04-29T16:58:33.668Z,6.90
2019-04-29T17:01:23.384Z,7.00
2019-04-29T17:04:11.733Z,7.10
2019-04-29T17:10:10.822Z,7.00
2019-04-29T17:12:59.572Z,7.00
2019-04-29T17:15:52.248Z,7.00
2019-04-29T17:18:42.357Z,6.90
2019-04-29T17:21:31.408Z,6.90
2019-04-29T17:27:26.824Z,6.90
2019-04-29T17:30:25.323Z,6.80
2019-04-29T17:33:25.985Z,6.80
2019-04-29T17:35:15.681Z,7.00
2019-04-29T17:36:07.193Z,6.80
2019-04-29T17:38:55.536Z,6.70
2019-04-29T17:41:25.154Z,6.70
2019-04-29T17:44:18.619Z,6.70
2019-04-29T17:46:57.701Z,6.70
2019-04-29T17:52:21.826Z,6.70
2019-04-29T17:54:55.049Z,6.80
2019-04-29T17:57:31.542Z,6.80
2019-04-29T18:00:22.310Z,6.90
2019-04-29T18:03:10.165Z,6.90
2019-04-29T18:08:38.933Z,6.90
2019-04-29T18:11:15.231Z,6.90
2019-04-29T18:13:45.860Z,6.90
2019-04-29T18:16:28.265Z,7.00
2019-04-29T18:19:01.827Z,7.00
2019-04-29T18:21:51.937Z,7.00
2019-04-29T18:24:37.263Z,7.00
2019-04-29T18:27:08.841Z,6.90
2019-04-29T18:29:41.592Z,6.90
2019-04-29T18:32:19.902Z,6.90
2019-04-29T18:34:49.972Z,6.90
2019-04-29T18:39:50.842Z,7.00
2019-04-29T18:42:22.880Z,7.00
2019-04-29T18:50:08.085Z,7.10
2019-04-29T18:52:38.218Z,7.10
2019-04-29T18:57:40.038Z,7.00
2019-04-29T19:02:46.071Z,7.00
2019-04-29T19:07:55.157Z,7.00
2019-04-29T19:10:32.989Z,7.00
2019-04-29T19:13:00.145Z,7.00
2019-04-29T19:15:28.996Z,7.10
2019-04-29T19:20:32.278Z,7.10
2019-04-29T19:28:15.000Z,7.10
2019-04-29T19:38:12.449Z,7.10
2019-04-29T19:48:28.713Z,7.10
2019-04-29T19:51:14.502Z,7.50
2019-04-29T20:01:13.464Z,7.20
2019-04-29T20:03:47.348Z,7.20
2019-04-29T20:06:24.747Z,7.20
2019-04-29T20:08:54.539Z,7.20
2019-04-29T20:11:31.699Z,7.20
2019-04-29T20:19:21.389Z,7.30
2019-04-29T20:21:55.740Z,7.20
2019-04-29T20:24:26.808Z,7.20
2019-04-29T20:26:57.156Z,7.20
2019-04-29T20:29:33.850Z,7.20
2019-04-29T20:32:07.508Z,7.30
2019-04-29T20:39:46.046Z,7.20
2019-04-29T20:42:16.371Z,7.30
2019-04-29T20:47:23.275Z,7.30
2019-04-29T20:52:42.980Z,7.30
2019-04-29T20:57:43.456Z,7.40
2019-04-29T21:02:48.805Z,7.40
2019-04-29T21:10:48.332Z,7.40
2019-04-29T21:13:37.911Z,7.40
2019-04-29T21:16:18.659Z,7.50
2019-04-29T21:21:30.376Z,7.40
2019-04-29T21:26:30.194Z,7.50
2019-04-29T21:29:00.281Z,7.50
2019-04-29T21:31:38.641Z,7.60
2019-04-29T21:52:24.107Z,7.70
2019-04-29T21:55:00.165Z,7.60
2019-04-29T21:57:31.201Z,7.60
2019-04-29T22:02:32.089Z,7.60
2019-04-29T22:10:11.402Z,7.70
2019-04-29T22:12:45.862Z,7.70
2019-04-29T22:20:20.825Z,7.70
2019-04-29T22:22:51.009Z,7.80
2019-04-29T22:35:25.202Z,7.80
2019-04-29T22:37:56.962Z,7.90
2019-04-29T22:50:39.594Z,7.90
2019-04-29T22:53:09.725Z,7.90
2019-04-29T23:13:12.969Z,7.90
2019-04-29T23:18:24.581Z,7.90
2019-04-29T23:20:49.169Z,7.90
2019-04-29T23:23:20.911Z,7.90
2019-04-29T23:25:55.518Z,7.80
2019-04-29T23:28:32.538Z,7.90
2019-04-29T23:33:36.457Z,7.90
2019-04-29T23:36:09.573Z,7.90
2019-04-29T23:38:42.658Z,7.90
2019-04-29T23:41:10.330Z,8.00
2019-04-29T23:43:43.017Z,8.00
2019-04-29T23:48:42.902Z,8.00
2019-04-29T23:51:15.393Z,8.10
2019-04-29T23:58:56.915Z,8.10
